createdAt,value
2019-02-21T00:00:49.932Z,3.27
2019-02-21T00:01:49.923Z,3.21
2019-02-21T00:02:49.918Z,3.23
2019-02-21T00:03:49.897Z,3.14
2019-02-21T00:04:49.919Z,3.09
2019-02-21T00:05:49.881Z,3.08
2019-02-21T00:06:49.874Z,3.09
2019-02-21T00:07:49.858Z,3.01
2019-02-21T00:08:49.846Z,3.01
2019-02-21T00:09:49.840Z,3.05
2019-02-21T00:10:49.840Z,3.05
2019-02-21T00:11:49.901Z,2.98
2019-02-21T00:12:49.811Z,3.01
2019-02-21T00:13:49.807Z,3.06
2019-02-21T00:14:49.788Z,2.91
2019-02-21T00:15:49.848Z,2.91
2019-02-21T00:16:49.776Z,2.90
2019-02-21T00:17:49.756Z,2.98
2019-02-21T00:18:49.745Z,2.93
2019-02-21T00:19:49.730Z,2.95
2019-02-21T00:20:49.718Z,2.88
2019-02-21T00:21:49.709Z,2.87
2019-02-21T00:22:49.717Z,2.85
2019-02-21T00:23:49.698Z,2.91
2019-02-21T00:24:49.677Z,2.73
2019-02-21T00:25:49.670Z,2.85
2019-02-21T00:26:49.676Z,2.84
2019-02-21T00:27:49.642Z,2.78
2019-02-21T00:28:49.662Z,2.76
2019-02-21T00:29:49.632Z,2.81
2019-02-21T00:30:49.609Z,2.84
2019-02-21T00:31:49.619Z,2.83
2019-02-21T00:32:49.590Z,2.83
2019-02-21T00:33:49.593Z,2.76
2019-02-21T00:34:49.593Z,2.80
2019-02-21T00:35:49.568Z,2.70
2019-02-21T00:36:49.551Z,2.70
2019-02-21T00:37:49.539Z,2.59
2019-02-21T00:38:49.533Z,2.72
2019-02-21T00:39:49.517Z,2.60
2019-02-21T00:40:49.527Z,2.67
2019-02-21T00:41:49.489Z,2.65
2019-02-21T00:42:49.486Z,2.59
2019-02-21T00:43:49.489Z,2.58
2019-02-21T00:44:49.466Z,2.55
2019-02-21T00:45:49.454Z,2.59
2019-02-21T00:46:49.485Z,2.58
2019-02-21T00:47:49.428Z,2.58
2019-02-21T00:48:49.418Z,2.55
2019-02-21T00:49:49.418Z,2.60
2019-02-21T00:50:49.396Z,2.62
2019-02-21T00:51:49.384Z,2.54
2019-02-21T00:52:49.390Z,2.58
2019-02-21T00:53:49.364Z,2.52
2019-02-21T00:54:49.363Z,2.60
2019-02-21T00:55:49.336Z,2.55
2019-02-21T00:56:49.326Z,2.54
2019-02-21T00:57:49.325Z,2.52
2019-02-21T00:58:49.323Z,2.55
2019-02-21T00:59:50.902Z,2.58
2019-02-21T01:00:49.304Z,2.55
2019-02-21T01:01:49.278Z,2.52
2019-02-21T01:02:49.266Z,2.59
2019-02-21T01:03:49.252Z,2.58
2019-02-21T01:04:49.268Z,2.58
2019-02-21T01:05:49.234Z,2.55
2019-02-21T01:06:49.248Z,2.49
2019-02-21T01:07:49.214Z,2.51
2019-02-21T01:08:49.208Z,2.54
2019-02-21T01:09:49.192Z,2.47
2019-02-21T01:10:49.192Z,2.52
2019-02-21T01:11:49.173Z,2.49
2019-02-21T01:12:49.176Z,2.42
2019-02-21T01:13:49.151Z,2.38
2019-02-21T01:14:49.150Z,2.44
2019-02-21T01:15:49.150Z,2.41
2019-02-21T01:16:49.130Z,2.38
2019-02-21T01:17:49.109Z,2.36
2019-02-21T01:18:49.112Z,2.36
2019-02-21T01:19:49.083Z,2.38
2019-02-21T01:20:49.089Z,2.45
2019-02-21T01:21:49.059Z,2.41
2019-02-21T01:22:49.070Z,2.42
2019-02-21T01:23:49.040Z,2.41
2019-02-21T01:24:49.037Z,2.44
2019-02-21T01:25:49.027Z,2.41
2019-02-21T01:26:49.018Z,2.33
2019-02-21T01:27:48.995Z,2.42
2019-02-21T01:28:49.005Z,2.33
2019-02-21T01:29:48.986Z,2.33
2019-02-21T01:30:56.609Z,2.47
2019-02-21T01:31:49.954Z,2.47
2019-02-21T01:32:49.033Z,2.55
2019-02-21T01:33:48.939Z,2.54
2019-02-21T01:34:48.945Z,2.49
2019-02-21T01:35:48.915Z,2.49
2019-02-21T01:36:48.914Z,2.44
2019-02-21T01:37:48.901Z,2.51
2019-02-21T01:38:48.878Z,2.40
2019-02-21T01:39:48.869Z,2.42
2019-02-21T01:40:48.872Z,2.36
2019-02-21T01:41:48.846Z,2.45
2019-02-21T01:42:48.833Z,2.33
2019-02-21T01:43:48.835Z,2.34
2019-02-21T01:44:48.811Z,2.40
2019-02-21T01:45:48.808Z,2.38
2019-02-21T01:46:48.814Z,2.42
2019-02-21T01:47:48.782Z,2.40
2019-02-21T01:48:48.779Z,2.41
2019-02-21T01:49:48.766Z,2.30
2019-02-21T01:50:48.753Z,2.27
2019-02-21T01:51:48.744Z,2.30
2019-02-21T01:52:48.772Z,2.31
2019-02-21T01:53:48.721Z,2.20
2019-02-21T01:54:48.752Z,2.23
2019-02-21T01:55:48.709Z,2.26
2019-02-21T01:56:48.688Z,2.20
2019-02-21T01:57:48.682Z,2.15
2019-02-21T01:58:48.689Z,2.22
2019-02-21T01:59:48.669Z,2.20
2019-02-21T02:00:48.645Z,2.18
2019-02-21T02:01:48.647Z,2.16
2019-02-21T02:02:48.660Z,2.12
2019-02-21T02:03:48.616Z,2.08
2019-02-21T02:04:48.618Z,2.05
2019-02-21T02:05:48.608Z,2.08
2019-02-21T02:06:48.586Z,2.15
2019-02-21T02:07:48.571Z,2.16
2019-02-21T02:08:48.573Z,2.18
2019-02-21T02:09:48.570Z,2.12
2019-02-21T02:10:48.607Z,2.24
2019-02-21T02:11:48.531Z,2.18
2019-02-21T02:12:48.526Z,2.11
2019-02-21T02:13:48.514Z,2.11
2019-02-21T02:14:48.504Z,2.02
2019-02-21T02:15:48.499Z,2.18
2019-02-21T02:16:48.520Z,1.98
2019-02-21T02:17:48.470Z,2.02
2019-02-21T02:18:48.460Z,1.93
2019-02-21T02:19:48.451Z,1.90
2019-02-21T02:20:48.439Z,1.93
2019-02-21T02:21:48.430Z,1.90
2019-02-21T02:22:48.432Z,1.90
2019-02-21T02:23:48.422Z,1.93
2019-02-21T02:24:48.403Z,1.93
2019-02-21T02:25:48.391Z,1.90
2019-02-21T02:26:48.377Z,1.87
2019-02-21T02:27:48.365Z,1.94
2019-02-21T02:28:48.377Z,1.94
2019-02-21T02:29:48.355Z,1.79
2019-02-21T02:30:48.337Z,1.79
2019-02-21T02:31:48.323Z,1.84
2019-02-21T02:32:48.314Z,1.78
2019-02-21T02:33:48.302Z,1.76
2019-02-21T02:34:48.346Z,1.75
2019-02-21T02:35:48.281Z,1.79
2019-02-21T02:36:48.275Z,1.79
2019-02-21T02:37:48.265Z,1.78
2019-02-21T02:38:48.252Z,1.74
2019-02-21T02:39:48.239Z,1.74
2019-02-21T02:40:48.248Z,1.72
2019-02-21T02:41:48.224Z,1.74
2019-02-21T02:42:48.213Z,1.68
2019-02-21T02:43:48.194Z,1.74
2019-02-21T02:44:48.192Z,1.72
2019-02-21T02:45:48.178Z,1.71
2019-02-21T02:46:48.188Z,1.69
2019-02-21T02:47:48.155Z,1.69
2019-02-21T02:48:48.158Z,1.71
2019-02-21T02:49:48.144Z,1.69
2019-02-21T02:50:48.131Z,1.72
2019-02-21T02:51:48.127Z,1.76
2019-02-21T02:52:48.124Z,1.68
2019-02-21T02:53:48.097Z,1.71
2019-02-21T02:54:48.093Z,1.69
2019-02-21T02:55:48.103Z,1.72
2019-02-21T02:56:48.063Z,1.66
2019-02-21T02:57:48.062Z,1.60
2019-02-21T02:58:48.058Z,1.71
2019-02-21T02:59:48.033Z,1.68
2019-02-21T03:00:48.038Z,1.58
2019-02-21T03:01:48.011Z,1.61
2019-02-21T03:02:47.998Z,1.65
2019-02-21T03:03:48.008Z,1.66
2019-02-21T03:04:48.024Z,1.58
2019-02-21T03:05:47.969Z,1.66
2019-02-21T03:06:47.956Z,1.71
2019-02-21T03:07:47.950Z,1.71
2019-02-21T03:08:47.938Z,1.71
2019-02-21T03:09:47.928Z,1.74
2019-02-21T03:10:47.937Z,1.69
2019-02-21T03:11:51.527Z,1.65
2019-02-21T03:12:47.894Z,1.69
2019-02-21T03:13:47.889Z,1.66
2019-02-21T03:14:47.879Z,1.60
2019-02-21T03:15:47.865Z,1.57
2019-02-21T03:16:47.868Z,1.69
2019-02-21T03:17:47.863Z,1.58
2019-02-21T03:18:47.831Z,1.68
2019-02-21T03:19:47.831Z,1.64
2019-02-21T03:20:47.826Z,1.58
2019-02-21T03:21:47.801Z,1.64
2019-02-21T03:22:47.812Z,1.56
2019-02-21T03:23:47.782Z,1.61
2019-02-21T03:24:47.776Z,1.60
2019-02-21T03:25:47.782Z,1.56
2019-02-21T03:26:47.765Z,1.53
2019-02-21T03:27:47.739Z,1.54
2019-02-21T03:28:47.760Z,1.64
2019-02-21T03:29:47.712Z,1.69
2019-02-21T03:30:47.703Z,1.68
2019-02-21T03:31:54.819Z,1.74
2019-02-21T03:32:48.685Z,1.69
2019-02-21T03:33:47.669Z,1.65
2019-02-21T03:34:47.701Z,1.64
2019-02-21T03:35:47.653Z,1.68
2019-02-21T03:36:47.657Z,1.64
2019-02-21T03:37:47.630Z,1.61
2019-02-21T03:38:47.627Z,1.61
2019-02-21T03:39:47.604Z,1.64
2019-02-21T03:40:47.610Z,1.54
2019-02-21T03:41:47.597Z,1.66
2019-02-21T03:42:47.576Z,1.64
2019-02-21T03:43:47.573Z,1.58
2019-02-21T03:44:47.561Z,1.65
2019-02-21T03:45:47.557Z,1.58
2019-02-21T03:46:47.557Z,1.61
2019-02-21T03:47:47.527Z,1.56
2019-02-21T03:48:47.518Z,1.57
2019-02-21T03:49:47.507Z,1.61
2019-02-21T03:50:47.493Z,1.54
2019-02-21T03:51:47.489Z,1.47
2019-02-21T03:52:47.508Z,1.60
2019-02-21T03:53:47.460Z,1.53
2019-02-21T03:54:47.460Z,1.53
2019-02-21T03:55:47.441Z,1.54
2019-02-21T03:56:47.435Z,1.57
2019-02-21T03:57:47.418Z,1.50
2019-02-21T03:58:47.422Z,1.54
2019-02-21T03:59:47.395Z,1.51
2019-02-21T04:00:47.393Z,1.53
2019-02-21T04:01:47.396Z,1.54
2019-02-21T04:02:47.369Z,1.40
2019-02-21T04:03:47.368Z,1.42
2019-02-21T04:04:47.384Z,1.40
2019-02-21T04:05:47.336Z,1.36
2019-02-21T04:06:47.325Z,1.36
2019-02-21T04:07:47.313Z,1.42
2019-02-21T04:08:47.329Z,1.33
2019-02-21T04:09:47.309Z,1.35
2019-02-21T04:10:47.306Z,1.32
2019-02-21T04:11:47.281Z,1.33
2019-02-21T04:12:47.262Z,1.38
2019-02-21T04:13:47.252Z,1.33
2019-02-21T04:14:47.245Z,1.30
2019-02-21T04:15:47.259Z,1.38
2019-02-21T04:16:47.243Z,1.39
2019-02-21T04:17:47.275Z,1.42
2019-02-21T04:18:47.202Z,1.38
2019-02-21T04:19:47.191Z,1.38
2019-02-21T04:20:47.179Z,1.33
2019-02-21T04:21:47.173Z,1.38
2019-02-21T04:22:47.169Z,1.39
2019-02-21T04:23:47.146Z,1.29
2019-02-21T04:24:47.144Z,1.36
2019-02-21T04:25:47.121Z,1.28
2019-02-21T04:26:48.126Z,1.32
2019-02-21T04:27:47.115Z,1.26
2019-02-21T04:28:49.620Z,1.33
2019-02-21T04:29:47.626Z,1.32
2019-02-21T04:30:47.124Z,1.32
2019-02-21T04:31:47.066Z,1.29
2019-02-21T04:32:47.045Z,1.35
2019-02-21T04:33:47.041Z,1.33
2019-02-21T04:34:47.050Z,1.30
2019-02-21T04:35:47.020Z,1.40
2019-02-21T04:36:47.008Z,1.44
2019-02-21T04:37:46.995Z,1.36
2019-02-21T04:38:46.984Z,1.36
2019-02-21T04:39:46.976Z,1.35
2019-02-21T04:40:46.992Z,1.38
2019-02-21T04:41:46.952Z,1.32
2019-02-21T04:42:46.949Z,1.32
2019-02-21T04:43:46.966Z,1.32
2019-02-21T04:44:46.924Z,1.30
2019-02-21T04:45:46.911Z,1.28
2019-02-21T04:46:46.914Z,1.30
2019-02-21T04:47:46.892Z,1.32
2019-02-21T04:48:46.880Z,1.29
2019-02-21T04:49:46.873Z,1.26
2019-02-21T04:50:46.860Z,1.29
2019-02-21T04:51:46.849Z,1.24
2019-02-21T04:52:46.858Z,1.20
2019-02-21T04:53:46.850Z,1.22
2019-02-21T04:54:46.835Z,1.18
2019-02-21T04:55:46.872Z,1.15
2019-02-21T04:56:46.820Z,1.32
2019-02-21T04:57:46.809Z,1.36
2019-02-21T04:58:46.787Z,1.32
2019-02-21T04:59:46.766Z,1.36
2019-02-21T05:00:46.763Z,1.33
2019-02-21T05:01:46.745Z,1.36
2019-02-21T05:02:46.738Z,1.30
2019-02-21T05:03:46.722Z,1.26
2019-02-21T05:04:46.722Z,1.26
2019-02-21T05:05:46.699Z,1.15
2019-02-21T05:06:46.692Z,1.21
2019-02-21T05:07:46.684Z,1.22
2019-02-21T05:08:46.683Z,1.21
2019-02-21T05:09:57.443Z,1.24
2019-02-21T05:10:47.677Z,1.14
2019-02-21T05:11:53.671Z,1.12
2019-02-21T05:12:46.625Z,1.20
2019-02-21T05:13:46.612Z,1.12
2019-02-21T05:14:46.717Z,1.35
2019-02-21T05:15:46.602Z,1.26
2019-02-21T05:16:46.606Z,1.22
2019-02-21T05:17:46.573Z,1.26
2019-02-21T05:18:46.561Z,1.24
2019-02-21T05:19:46.552Z,1.22
2019-02-21T05:20:46.539Z,1.22
2019-02-21T05:21:46.524Z,1.21
2019-02-21T05:22:46.527Z,1.22
2019-02-21T05:23:46.507Z,1.22
2019-02-21T05:24:46.496Z,1.15
2019-02-21T05:25:46.487Z,1.15
2019-02-21T05:26:46.476Z,1.10
2019-02-21T05:27:46.467Z,1.20
2019-02-21T05:28:46.478Z,1.15
2019-02-21T05:29:46.444Z,1.18
2019-02-21T05:30:46.434Z,1.21
2019-02-21T05:31:46.428Z,1.15
2019-02-21T05:32:46.415Z,1.20
2019-02-21T05:33:46.403Z,1.15
2019-02-21T05:34:46.406Z,1.17
2019-02-21T05:35:46.380Z,1.24
2019-02-21T05:36:46.370Z,1.12
2019-02-21T05:37:46.357Z,1.12
2019-02-21T05:38:46.348Z,1.14
2019-02-21T05:39:46.339Z,1.14
2019-02-21T05:40:46.365Z,1.04
2019-02-21T05:41:46.319Z,1.15
2019-02-21T05:42:46.312Z,1.02
2019-02-21T05:43:46.296Z,1.00
2019-02-21T05:44:46.288Z,1.20
2019-02-21T05:45:46.983Z,1.07
2019-02-21T05:46:46.280Z,1.04
2019-02-21T05:47:46.255Z,1.02
2019-02-21T05:48:46.243Z,1.03
2019-02-21T05:49:46.233Z,1.08
2019-02-21T05:50:46.223Z,0.97
2019-02-21T05:51:46.209Z,0.93
2019-02-21T05:52:46.212Z,0.86
2019-02-21T05:53:46.195Z,0.84
2019-02-21T05:54:46.185Z,0.93
2019-02-21T05:55:46.167Z,0.96
2019-02-21T05:56:46.158Z,0.92
2019-02-21T05:57:46.155Z,0.76
2019-02-21T05:58:46.159Z,0.92
2019-02-21T05:59:46.128Z,0.79
2019-02-21T06:00:46.117Z,0.76
2019-02-21T06:01:46.107Z,0.90
2019-02-21T06:02:53.292Z,0.89
2019-02-21T06:03:47.098Z,0.94
2019-02-21T06:04:46.074Z,0.93
2019-02-21T06:05:46.066Z,0.92
2019-02-21T06:06:46.051Z,0.93
2019-02-21T06:07:46.050Z,0.96
2019-02-21T06:08:46.036Z,1.04
2019-02-21T06:09:46.037Z,1.07
2019-02-21T06:10:46.011Z,0.99
2019-02-21T06:11:46.001Z,1.07
2019-02-21T06:12:45.993Z,1.10
2019-02-21T06:13:45.975Z,1.02
2019-02-21T06:14:45.969Z,1.07
2019-02-21T06:15:45.977Z,1.04
2019-02-21T06:16:45.949Z,1.02
2019-02-21T06:17:45.950Z,1.00
2019-02-21T06:18:45.931Z,1.02
2019-02-21T06:19:48.048Z,1.07
2019-02-21T06:20:45.916Z,1.07
2019-02-21T06:21:45.911Z,1.03
2019-02-21T06:22:45.893Z,1.03
2019-02-21T06:23:45.881Z,0.99
2019-02-21T06:24:45.864Z,1.04
2019-02-21T06:25:51.410Z,1.02
2019-02-21T06:26:46.868Z,1.11
2019-02-21T06:27:45.834Z,1.07
2019-02-21T06:28:45.821Z,1.03
2019-02-21T06:29:45.811Z,1.03
2019-02-21T06:30:45.811Z,1.02
2019-02-21T06:31:45.790Z,1.07
2019-02-21T06:32:45.792Z,1.03
2019-02-21T06:33:45.772Z,1.02
2019-02-21T06:34:45.757Z,1.10
2019-02-21T06:35:45.756Z,1.14
2019-02-21T06:36:45.744Z,1.14
2019-02-21T06:37:45.728Z,1.11
2019-02-21T06:38:45.728Z,1.15
2019-02-21T06:39:45.705Z,1.15
2019-02-21T06:40:47.055Z,1.17
2019-02-21T06:41:45.685Z,1.20
2019-02-21T06:42:45.712Z,1.18
2019-02-21T06:43:45.668Z,1.28
2019-02-21T06:44:45.697Z,1.24
2019-02-21T06:45:45.651Z,1.30
2019-02-21T06:46:45.637Z,1.32
2019-02-21T06:47:45.622Z,1.36
2019-02-21T06:48:45.612Z,1.33
2019-02-21T06:49:45.604Z,1.36
2019-02-21T06:50:47.621Z,1.44
2019-02-21T06:51:45.580Z,1.39
2019-02-21T06:52:45.567Z,1.40
2019-02-21T06:53:45.555Z,1.51
2019-02-21T06:54:45.545Z,1.51
2019-02-21T06:55:45.535Z,1.51
2019-02-21T06:56:45.544Z,1.61
2019-02-21T06:57:45.520Z,1.60
2019-02-21T06:58:45.504Z,1.64
2019-02-21T06:59:45.566Z,1.65
2019-02-21T07:00:46.217Z,1.65
2019-02-21T07:01:45.470Z,1.65
2019-02-21T07:02:45.480Z,1.66
2019-02-21T07:03:45.447Z,1.74
2019-02-21T07:04:45.438Z,1.84
2019-02-21T07:05:45.428Z,1.86
2019-02-21T07:06:45.418Z,1.87
2019-02-21T07:07:45.406Z,2.15
2019-02-21T07:08:45.420Z,2.51
2019-02-21T07:09:45.389Z,2.83
2019-02-21T07:10:45.378Z,3.09
2019-02-21T07:11:46.053Z,3.34
2019-02-21T07:12:45.355Z,3.42
2019-02-21T07:13:45.342Z,3.74
2019-02-21T07:14:45.348Z,3.90
2019-02-21T07:15:45.324Z,3.94
2019-02-21T07:16:45.311Z,4.02
2019-02-21T07:17:49.208Z,4.17
2019-02-21T07:18:45.293Z,4.20
2019-02-21T07:19:45.278Z,4.35
2019-02-21T07:20:45.288Z,4.66
2019-02-21T07:21:45.263Z,4.72
2019-02-21T07:22:45.247Z,4.78
2019-02-21T07:23:45.237Z,4.71
2019-02-21T07:24:45.228Z,4.78
2019-02-21T07:25:45.236Z,5.00
2019-02-21T07:26:45.222Z,5.24
2019-02-21T07:27:45.199Z,5.45
2019-02-21T07:28:45.183Z,5.54
2019-02-21T07:29:45.173Z,5.46
2019-02-21T07:30:45.164Z,5.64
2019-02-21T07:31:45.152Z,5.66
2019-02-21T07:32:45.155Z,5.73
2019-02-21T07:33:45.128Z,5.85
2019-02-21T07:34:45.119Z,5.98
2019-02-21T07:35:45.111Z,5.92
2019-02-21T07:36:45.097Z,5.89
2019-02-21T07:37:45.087Z,6.17
2019-02-21T07:38:45.100Z,6.46
2019-02-21T07:39:45.064Z,6.67
2019-02-21T07:40:45.055Z,6.68
2019-02-21T07:41:45.044Z,6.85
2019-02-21T07:42:45.035Z,6.75
2019-02-21T07:43:45.026Z,6.72
2019-02-21T07:44:45.485Z,6.44
2019-02-21T07:45:45.005Z,6.58
2019-02-21T07:46:46.332Z,6.80
2019-02-21T07:47:44.978Z,7.03
2019-02-21T07:48:44.968Z,6.88
2019-02-21T07:49:44.955Z,6.98
2019-02-21T07:50:44.958Z,6.94
2019-02-21T07:51:44.934Z,6.95
2019-02-21T07:52:44.924Z,7.16
2019-02-21T07:53:44.911Z,7.44
2019-02-21T07:54:44.902Z,7.59
2019-02-21T07:55:44.892Z,7.55
2019-02-21T07:56:44.999Z,7.68
2019-02-21T07:57:44.876Z,7.89
2019-02-21T07:58:44.859Z,7.70
2019-02-21T07:59:44.845Z,7.77
2019-02-21T08:00:44.840Z,7.95
2019-02-21T08:01:44.836Z,7.99
2019-02-21T08:02:44.831Z,8.13
2019-02-21T08:03:48.094Z,7.74
2019-02-21T08:04:44.802Z,7.80
2019-02-21T08:05:44.780Z,8.16
2019-02-21T08:06:44.773Z,7.96
2019-02-21T08:07:44.764Z,7.70
2019-02-21T08:08:45.111Z,7.67
2019-02-21T08:09:44.741Z,7.98
2019-02-21T08:10:44.731Z,8.13
2019-02-21T08:11:44.716Z,8.19
2019-02-21T08:12:44.714Z,8.32
2019-02-21T08:13:44.696Z,8.39
2019-02-21T08:14:44.703Z,8.09
2019-02-21T08:15:44.677Z,7.54
2019-02-21T08:16:44.666Z,7.71
2019-02-21T08:17:44.653Z,7.88
2019-02-21T08:18:44.640Z,7.78
2019-02-21T08:19:44.638Z,8.04
2019-02-21T08:20:44.641Z,8.10
2019-02-21T08:21:44.666Z,8.10
2019-02-21T08:22:44.600Z,8.09
2019-02-21T08:23:50.449Z,8.22
2019-02-21T08:24:45.578Z,8.90
2019-02-21T08:25:44.569Z,8.89
2019-02-21T08:26:44.572Z,9.30
2019-02-21T08:27:44.544Z,9.62
2019-02-21T08:28:44.534Z,9.96
2019-02-21T08:29:44.524Z,10.02
2019-02-21T08:30:44.510Z,10.31
2019-02-21T08:31:44.500Z,10.33
2019-02-21T08:32:44.505Z,10.42
2019-02-21T08:33:47.078Z,10.51
2019-02-21T08:34:48.040Z,10.05
2019-02-21T08:35:44.454Z,8.97
2019-02-21T08:36:44.445Z,8.61
2019-02-21T08:37:44.432Z,8.35
2019-02-21T08:38:44.438Z,8.19
2019-02-21T08:39:44.413Z,8.46
2019-02-21T08:40:44.401Z,8.76
2019-02-21T08:41:44.391Z,8.86
2019-02-21T08:42:44.382Z,8.79
2019-02-21T08:43:44.369Z,9.04
2019-02-21T08:44:44.378Z,8.22
2019-02-21T08:45:44.346Z,7.27
2019-02-21T08:46:44.337Z,6.73
2019-02-21T08:47:44.327Z,6.58
2019-02-21T08:48:44.314Z,6.39
2019-02-21T08:49:44.301Z,6.61
2019-02-21T08:50:44.307Z,6.79
2019-02-21T08:51:44.281Z,7.05
2019-02-21T08:52:44.271Z,6.76
2019-02-21T08:53:44.264Z,6.78
2019-02-21T08:54:44.250Z,6.86
2019-02-21T08:55:44.238Z,7.05
2019-02-21T08:56:44.243Z,7.04
2019-02-21T08:57:44.214Z,7.19
2019-02-21T08:58:44.204Z,7.98
2019-02-21T08:59:44.236Z,8.58
2019-02-21T09:00:44.190Z,8.22
2019-02-21T09:01:44.169Z,8.22
2019-02-21T09:02:44.179Z,8.11
2019-02-21T09:03:44.150Z,8.21
2019-02-21T09:04:44.137Z,8.43
2019-02-21T09:05:44.130Z,8.65
2019-02-21T09:06:44.114Z,8.83
2019-02-21T09:07:46.186Z,9.12
2019-02-21T09:08:44.109Z,9.19
2019-02-21T09:09:44.084Z,9.23
2019-02-21T09:10:44.097Z,9.27
2019-02-21T09:11:44.062Z,9.26
2019-02-21T09:12:48.232Z,9.29
2019-02-21T09:13:44.041Z,9.48
2019-02-21T09:14:44.042Z,9.57
2019-02-21T09:15:46.474Z,9.62
2019-02-21T09:16:44.004Z,9.74
2019-02-21T09:17:43.997Z,10.11
2019-02-21T09:18:43.986Z,10.29
2019-02-21T09:19:43.972Z,10.25
2019-02-21T09:20:43.984Z,9.77
2019-02-21T09:21:43.952Z,9.81
2019-02-21T09:22:43.991Z,10.20
2019-02-21T09:23:43.930Z,10.28
2019-02-21T09:24:43.939Z,10.54
2019-02-21T09:25:43.907Z,10.72
2019-02-21T09:26:43.922Z,10.67
2019-02-21T09:27:43.909Z,10.41
2019-02-21T09:28:43.875Z,10.46
2019-02-21T09:29:43.862Z,10.49
2019-02-21T09:30:43.852Z,10.46
2019-02-21T09:31:43.841Z,10.49
2019-02-21T09:32:43.843Z,10.84
2019-02-21T09:33:43.981Z,11.10
2019-02-21T09:34:43.811Z,10.77
2019-02-21T09:35:43.797Z,10.92
2019-02-21T09:36:43.785Z,10.54
2019-02-21T09:37:43.779Z,10.72
2019-02-21T09:38:43.782Z,10.44
2019-02-21T09:39:43.758Z,10.13
2019-02-21T09:40:43.744Z,10.31
2019-02-21T09:41:43.730Z,10.52
2019-02-21T09:42:43.725Z,10.26
2019-02-21T09:43:43.708Z,10.15
2019-02-21T09:44:43.715Z,10.35
2019-02-21T09:45:43.685Z,10.58
2019-02-21T09:46:43.678Z,10.33
2019-02-21T09:47:43.666Z,10.52
2019-02-21T09:48:43.655Z,10.90
2019-02-21T09:49:43.643Z,10.69
2019-02-21T09:50:43.649Z,11.35
2019-02-21T09:51:43.622Z,11.46
2019-02-21T09:52:43.613Z,11.15
2019-02-21T09:53:43.602Z,11.41
2019-02-21T09:54:43.592Z,11.33
2019-02-21T09:55:43.583Z,11.03
2019-02-21T09:56:52.289Z,11.42
2019-02-21T09:57:44.555Z,11.81
2019-02-21T09:58:45.814Z,12.37
2019-02-21T09:59:43.534Z,11.89
2019-02-21T10:00:43.525Z,11.60
2019-02-21T10:01:43.511Z,11.64
2019-02-21T10:02:43.519Z,11.78
2019-02-21T10:03:44.324Z,12.33
2019-02-21T10:04:43.485Z,12.33
2019-02-21T10:05:43.471Z,12.53
2019-02-21T10:06:43.459Z,12.53
2019-02-21T10:07:43.451Z,12.44
2019-02-21T10:08:43.454Z,12.65
2019-02-21T10:09:43.426Z,12.94
2019-02-21T10:10:43.412Z,13.42
2019-02-21T10:11:43.403Z,13.27
2019-02-21T10:12:43.393Z,13.09
2019-02-21T10:13:43.386Z,13.20
2019-02-21T10:14:43.383Z,13.40
2019-02-21T10:15:43.358Z,12.95
2019-02-21T10:16:43.351Z,13.25
2019-02-21T10:17:43.343Z,13.88
2019-02-21T10:18:43.326Z,13.73
2019-02-21T10:19:43.316Z,13.36
2019-02-21T10:20:43.322Z,13.01
2019-02-21T10:21:43.293Z,12.99
2019-02-21T10:22:43.286Z,12.92
2019-02-21T10:23:43.277Z,13.17
2019-02-21T10:24:43.255Z,13.54
2019-02-21T10:25:43.259Z,13.91
2019-02-21T10:26:43.256Z,14.09
2019-02-21T10:27:43.226Z,14.08
2019-02-21T10:28:45.045Z,14.01
2019-02-21T10:29:43.207Z,14.41
2019-02-21T10:30:43.195Z,14.16
2019-02-21T10:31:43.185Z,14.26
2019-02-21T10:32:43.193Z,14.52
2019-02-21T10:33:46.900Z,14.38
2019-02-21T10:34:43.555Z,14.48
2019-02-21T10:35:43.141Z,14.70
2019-02-21T10:36:43.131Z,14.33
2019-02-21T10:37:43.124Z,13.68
2019-02-21T10:38:43.127Z,13.63
2019-02-21T10:39:43.102Z,13.69
2019-02-21T10:40:43.084Z,13.17
2019-02-21T10:41:43.074Z,13.45
2019-02-21T10:42:43.065Z,13.72
2019-02-21T10:43:43.059Z,13.66
2019-02-21T10:44:43.055Z,13.69
2019-02-21T10:45:47.789Z,13.84
2019-02-21T10:46:44.019Z,13.93
2019-02-21T10:47:43.010Z,13.73
2019-02-21T10:48:43.000Z,13.70
2019-02-21T10:49:42.984Z,13.55
2019-02-21T10:50:42.991Z,13.45
2019-02-21T10:51:42.965Z,13.55
2019-02-21T10:52:42.953Z,14.16
2019-02-21T10:53:42.950Z,14.31
2019-02-21T10:54:42.930Z,14.61
2019-02-21T10:55:42.920Z,14.87
2019-02-21T10:56:42.924Z,15.01
2019-02-21T10:57:45.373Z,14.82
2019-02-21T10:58:42.887Z,14.28
2019-02-21T10:59:46.735Z,14.38
2019-02-21T11:00:42.869Z,14.52
2019-02-21T11:01:42.854Z,14.77
2019-02-21T11:02:42.892Z,14.52
2019-02-21T11:03:42.832Z,14.33
2019-02-21T11:04:54.089Z,14.52
2019-02-21T11:05:43.810Z,14.57
2019-02-21T11:06:42.800Z,14.64
2019-02-21T11:07:42.792Z,14.66
2019-02-21T11:08:42.790Z,14.74
2019-02-21T11:09:42.767Z,14.67
2019-02-21T11:10:42.755Z,14.71
2019-02-21T11:11:42.745Z,15.02
2019-02-21T11:12:42.732Z,14.42
2019-02-21T11:13:42.723Z,14.44
2019-02-21T11:14:47.500Z,14.67
2019-02-21T11:15:43.702Z,14.82
2019-02-21T11:16:42.688Z,15.18
2019-02-21T11:17:42.679Z,15.35
2019-02-21T11:18:42.668Z,15.51
2019-02-21T11:19:42.656Z,15.80
2019-02-21T11:20:42.662Z,15.35
2019-02-21T11:21:42.634Z,15.31
2019-02-21T11:22:42.628Z,15.23
2019-02-21T11:23:42.611Z,15.37
2019-02-21T11:24:42.610Z,15.53
2019-02-21T11:25:42.589Z,15.71
2019-02-21T11:26:42.595Z,15.44
2019-02-21T11:27:42.566Z,15.43
2019-02-21T11:28:42.556Z,15.78
2019-02-21T11:29:42.549Z,15.80
2019-02-21T11:30:42.534Z,16.22
2019-02-21T11:31:42.525Z,16.21
2019-02-21T11:32:42.534Z,16.27
2019-02-21T11:33:42.502Z,16.17
2019-02-21T11:34:42.501Z,16.02
2019-02-21T11:35:42.480Z,15.40
2019-02-21T11:36:42.470Z,15.47
2019-02-21T11:37:46.313Z,15.78
2019-02-21T11:38:42.464Z,16.26
2019-02-21T11:39:42.435Z,16.62
2019-02-21T11:40:42.426Z,16.73
2019-02-21T11:41:42.419Z,16.74
2019-02-21T11:42:42.408Z,16.63
2019-02-21T11:43:42.394Z,16.63
2019-02-21T11:44:42.398Z,17.00
2019-02-21T11:45:53.228Z,16.84
2019-02-21T11:46:43.364Z,16.62
2019-02-21T11:47:42.351Z,16.36
2019-02-21T11:48:42.339Z,16.27
2019-02-21T11:49:42.330Z,16.51
2019-02-21T11:50:42.348Z,16.58
2019-02-21T11:51:42.307Z,16.74
2019-02-21T11:52:42.296Z,16.82
2019-02-21T11:53:42.283Z,16.45
2019-02-21T11:54:42.272Z,16.48
2019-02-21T11:55:42.264Z,16.06
2019-02-21T11:56:42.266Z,15.99
2019-02-21T11:57:42.241Z,15.91
2019-02-21T11:58:42.228Z,16.29
2019-02-21T11:59:42.218Z,16.47
2019-02-21T12:00:42.205Z,16.77
2019-02-21T12:01:42.201Z,16.94
2019-02-21T12:02:42.213Z,16.92
2019-02-21T12:03:42.177Z,16.91
2019-02-21T12:04:42.164Z,16.69
2019-02-21T12:05:42.151Z,16.30
2019-02-21T12:06:42.147Z,16.49
2019-02-21T12:07:42.129Z,16.94
2019-02-21T12:08:42.132Z,16.99
2019-02-21T12:09:42.106Z,17.05
2019-02-21T12:10:42.097Z,17.62
2019-02-21T12:11:42.084Z,17.17
2019-02-21T12:12:42.078Z,17.32
2019-02-21T12:13:42.068Z,17.47
2019-02-21T12:14:42.072Z,17.94
2019-02-21T12:15:42.051Z,17.50
2019-02-21T12:16:42.034Z,17.63
2019-02-21T12:17:42.946Z,17.40
2019-02-21T12:18:42.010Z,17.42
2019-02-21T12:19:41.998Z,17.32
2019-02-21T12:20:42.001Z,17.00
2019-02-21T12:21:41.976Z,17.07
2019-02-21T12:22:41.966Z,17.13
2019-02-21T12:23:41.953Z,17.25
2019-02-21T12:24:41.945Z,16.92
2019-02-21T12:25:41.935Z,16.65
2019-02-21T12:26:41.934Z,16.70
2019-02-21T12:27:41.917Z,16.67
2019-02-21T12:28:41.944Z,16.65
2019-02-21T12:29:41.888Z,16.99
2019-02-21T12:30:41.876Z,16.74
2019-02-21T12:31:41.866Z,16.74
2019-02-21T12:32:41.872Z,17.03
2019-02-21T12:33:41.844Z,17.10
2019-02-21T12:34:41.834Z,17.68
2019-02-21T12:35:41.821Z,17.77
2019-02-21T12:36:41.812Z,17.18
2019-02-21T12:37:41.813Z,17.06
2019-02-21T12:38:41.836Z,16.92
2019-02-21T12:39:41.785Z,17.17
2019-02-21T12:40:41.767Z,17.02
2019-02-21T12:41:41.758Z,17.09
2019-02-21T12:42:41.744Z,17.15
2019-02-21T12:43:41.736Z,17.03
2019-02-21T12:44:41.738Z,16.94
2019-02-21T12:45:41.712Z,16.81
2019-02-21T12:46:41.699Z,16.32
2019-02-21T12:47:49.362Z,16.51
2019-02-21T12:48:42.682Z,16.48
2019-02-21T12:49:41.669Z,16.88
2019-02-21T12:50:44.501Z,16.92
2019-02-21T12:51:41.646Z,16.94
2019-02-21T12:52:41.637Z,17.02
2019-02-21T12:53:41.625Z,17.46
2019-02-21T12:54:41.614Z,17.42
2019-02-21T12:55:41.602Z,17.25
2019-02-21T12:56:41.611Z,17.21
2019-02-21T12:57:41.580Z,16.74
2019-02-21T12:58:41.569Z,16.80
2019-02-21T12:59:41.557Z,16.95
2019-02-21T13:00:41.552Z,16.92
2019-02-21T13:01:41.538Z,16.92
2019-02-21T13:02:41.580Z,17.07
2019-02-21T13:03:41.512Z,17.21
2019-02-21T13:04:41.506Z,17.20
2019-02-21T13:05:42.631Z,17.15
2019-02-21T13:06:41.488Z,17.17
2019-02-21T13:07:41.471Z,17.39
2019-02-21T13:08:41.476Z,17.57
2019-02-21T13:09:41.450Z,17.52
2019-02-21T13:10:41.438Z,17.49